createdAt,value
2019-05-11T00:00:05.344Z,12.94
2019-05-11T00:05:07.805Z,12.88
2019-05-11T00:10:09.999Z,12.93
2019-05-11T00:15:12.260Z,13.00
2019-05-11T00:20:14.354Z,12.55
2019-05-11T00:25:16.388Z,12.73
2019-05-11T00:30:18.792Z,12.73
2019-05-11T00:35:20.839Z,12.52
2019-05-11T00:40:22.905Z,12.57
2019-05-11T00:45:25.048Z,12.33
2019-05-11T00:50:38.878Z,12.52
2019-05-11T00:55:31.350Z,12.52
2019-05-11T01:00:33.566Z,12.01
2019-05-11T01:05:35.638Z,12.36
2019-05-11T01:10:42.274Z,12.09
2019-05-11T01:15:41.638Z,12.20
2019-05-11T01:20:43.959Z,12.19
2019-05-11T01:25:46.468Z,12.06
2019-05-11T01:30:48.599Z,12.07
2019-05-11T01:35:51.250Z,12.02
2019-05-11T01:40:58.704Z,12.06
2019-05-11T01:45:57.439Z,11.84
2019-05-11T01:50:59.522Z,11.76
2019-05-11T01:56:01.821Z,11.81
2019-05-11T02:01:03.967Z,11.60
2019-05-11T02:06:06.085Z,11.49
2019-05-11T02:11:15.725Z,11.39
2019-05-11T02:16:12.063Z,11.50
2019-05-11T02:21:14.170Z,11.50
2019-05-11T02:26:16.328Z,11.31
2019-05-11T02:31:18.506Z,11.28
2019-05-11T02:36:20.632Z,11.05
2019-05-11T02:41:35.395Z,10.92
2019-05-11T02:46:26.771Z,11.04
2019-05-11T02:51:28.940Z,10.91
2019-05-11T02:56:31.009Z,10.96
2019-05-11T03:01:33.114Z,10.77
2019-05-11T03:06:35.206Z,10.71
2019-05-11T03:11:54.287Z,10.82
2019-05-11T03:16:41.410Z,10.69
2019-05-11T03:21:43.462Z,10.84
2019-05-11T03:26:45.543Z,10.90
2019-05-11T03:31:47.600Z,10.85
2019-05-11T03:36:49.692Z,10.90
2019-05-11T03:41:51.806Z,10.81
2019-05-11T03:46:53.951Z,10.84
2019-05-11T03:51:56.002Z,10.76
2019-05-11T03:56:58.367Z,10.70
2019-05-11T04:02:00.486Z,10.88
2019-05-11T04:07:02.657Z,10.85
2019-05-11T04:12:04.713Z,10.80
2019-05-11T04:17:06.823Z,10.81
2019-05-11T04:22:09.278Z,10.84
2019-05-11T04:27:11.403Z,10.91
2019-05-11T04:32:13.511Z,10.58
2019-05-11T04:37:15.649Z,10.70
2019-05-11T04:42:17.770Z,10.73
2019-05-11T04:47:19.966Z,10.89
2019-05-11T04:52:22.040Z,10.95
2019-05-11T04:57:24.349Z,10.82
2019-05-11T05:02:27.359Z,10.79
2019-05-11T05:07:30.195Z,10.87
2019-05-11T05:12:34.332Z,10.73
2019-05-11T05:17:36.507Z,10.81
2019-05-11T05:22:38.672Z,10.88
2019-05-11T05:27:40.831Z,10.89
2019-05-11T05:32:42.943Z,10.88
2019-05-11T05:37:45.106Z,10.72
2019-05-11T05:42:47.208Z,10.61
2019-05-11T05:47:49.658Z,10.62
2019-05-11T05:52:51.710Z,10.80
2019-05-11T05:57:53.816Z,10.87
2019-05-11T06:02:55.932Z,10.81
2019-05-11T06:07:58.106Z,10.86
2019-05-11T06:13:00.291Z,10.81
2019-05-11T06:18:02.368Z,10.90
2019-05-11T06:23:04.515Z,10.93
2019-05-11T06:28:06.631Z,10.83
2019-05-11T06:33:08.695Z,10.91
2019-05-11T06:38:11.347Z,10.93
2019-05-11T06:43:13.419Z,11.07
2019-05-11T06:48:15.564Z,11.04
2019-05-11T06:53:17.800Z,11.15
2019-05-11T06:58:19.904Z,11.13
2019-05-11T07:03:22.062Z,11.13
2019-05-11T07:08:24.250Z,11.05
2019-05-11T07:13:26.622Z,11.18
2019-05-11T07:18:28.766Z,11.07
2019-05-11T07:23:31.231Z,11.05
2019-05-11T07:28:33.440Z,11.12
2019-05-11T07:33:37.865Z,11.27
2019-05-11T07:38:39.521Z,11.28
2019-05-11T07:43:41.602Z,11.07
2019-05-11T07:48:47.986Z,11.02
2019-05-11T07:53:50.237Z,11.03
2019-05-11T07:58:52.328Z,10.99
2019-05-11T08:03:54.485Z,11.06
2019-05-11T08:08:58.788Z,10.81
2019-05-11T08:14:00.755Z,10.77
2019-05-11T08:19:06.829Z,11.02
2019-05-11T08:24:09.144Z,11.12
2019-05-11T08:29:11.132Z,11.02
2019-05-11T08:34:13.227Z,10.95
2019-05-11T08:39:15.376Z,10.86
2019-05-11T08:44:18.175Z,11.18
2019-05-11T08:49:20.585Z,11.11
2019-05-11T08:54:22.982Z,11.26
2019-05-11T08:59:25.034Z,11.28
2019-05-11T09:04:28.874Z,11.18
2019-05-11T09:09:31.612Z,11.20
2019-05-11T09:14:33.941Z,11.36
2019-05-11T09:19:36.024Z,11.29
2019-05-11T09:24:38.758Z,11.34
2019-05-11T09:29:41.021Z,11.04
2019-05-11T09:34:43.128Z,11.08
2019-05-11T09:39:47.725Z,11.08
2019-05-11T09:44:49.541Z,11.47
2019-05-11T09:49:51.972Z,11.45
2019-05-11T09:54:54.095Z,11.57
2019-05-11T09:59:58.238Z,11.37
2019-05-11T10:05:00.320Z,11.53
2019-05-11T10:10:02.630Z,11.44
2019-05-11T10:15:08.128Z,11.36
2019-05-11T10:20:10.106Z,11.40
2019-05-11T10:25:12.106Z,11.25
2019-05-11T10:30:14.460Z,11.17
2019-05-11T10:35:18.429Z,11.54
2019-05-11T10:40:22.112Z,11.65
2019-05-11T10:45:25.721Z,11.79
2019-05-11T10:50:28.759Z,11.95
2019-05-11T10:55:31.161Z,11.78
2019-05-11T11:00:34.384Z,11.74
2019-05-11T11:05:38.422Z,11.84
2019-05-11T11:10:40.510Z,11.65
2019-05-11T11:15:42.584Z,11.59
2019-05-11T11:20:44.611Z,11.81
2019-05-11T11:25:48.186Z,11.74
2019-05-11T11:30:50.741Z,11.78
2019-05-11T11:35:52.817Z,11.69
2019-05-11T11:40:54.903Z,11.43
2019-05-11T11:45:58.032Z,11.80
2019-05-11T11:51:00.453Z,11.93
2019-05-11T11:56:03.345Z,11.67
2019-05-11T12:01:07.914Z,11.98
2019-05-11T12:06:09.531Z,11.69
2019-05-11T12:11:11.831Z,11.59
2019-05-11T12:16:13.937Z,11.47
2019-05-11T12:21:18.286Z,11.30
2019-05-11T12:26:20.084Z,11.33
2019-05-11T12:31:22.511Z,11.46
2019-05-11T12:36:24.593Z,11.27
2019-05-11T12:41:28.049Z,11.33
2019-05-11T12:46:30.224Z,11.36
2019-05-11T12:51:32.324Z,11.30
2019-05-11T12:56:35.073Z,11.28
2019-05-11T13:01:38.184Z,11.25
2019-05-11T13:06:40.507Z,11.38
2019-05-11T13:11:42.643Z,11.71
2019-05-11T13:16:48.305Z,11.72
2019-05-11T13:21:51.873Z,11.56
2019-05-11T13:26:54.098Z,11.64
2019-05-11T13:31:56.147Z,11.79
2019-05-11T13:36:58.214Z,11.84
2019-05-11T13:42:00.273Z,11.71
2019-05-11T13:47:02.374Z,11.77
2019-05-11T13:52:04.550Z,11.80
2019-05-11T13:57:08.083Z,11.64
2019-05-11T14:02:11.034Z,11.75
2019-05-11T14:07:13.277Z,11.62
2019-05-11T14:12:15.341Z,11.62
2019-05-11T14:17:18.667Z,11.63
2019-05-11T14:22:21.050Z,11.70
2019-05-11T14:27:23.161Z,11.71
2019-05-11T14:32:25.247Z,11.99
2019-05-11T14:37:28.564Z,12.13
2019-05-11T14:42:30.756Z,12.29
2019-05-11T14:47:33.145Z,12.51
2019-05-11T14:52:35.231Z,12.16
2019-05-11T14:57:39.558Z,11.93
2019-05-11T15:02:49.172Z,12.13
2019-05-11T15:07:53.553Z,12.05
2019-05-11T15:12:55.667Z,12.12
2019-05-11T15:17:58.311Z,12.00
2019-05-11T15:23:00.406Z,12.03
2019-05-11T15:28:02.495Z,11.65
2019-05-11T15:33:04.530Z,11.62
2019-05-11T15:38:08.715Z,11.49
2019-05-11T15:43:11.059Z,11.42
2019-05-11T15:48:13.681Z,11.36
2019-05-11T15:53:17.824Z,11.25
2019-05-11T15:58:22.215Z,11.24
2019-05-11T16:03:24.405Z,11.17
2019-05-11T16:08:28.376Z,11.04
2019-05-11T16:13:30.589Z,11.03
2019-05-11T16:18:32.694Z,11.10
2019-05-11T16:23:34.782Z,10.92
2019-05-11T16:28:38.394Z,10.92
2019-05-11T16:33:40.682Z,10.98
2019-05-11T16:38:42.771Z,10.88
2019-05-11T16:43:44.868Z,10.95
2019-05-11T16:48:47.052Z,10.80
2019-05-11T16:53:49.198Z,10.84
2019-05-11T16:58:54.494Z,10.76
2019-05-11T17:03:57.708Z,10.65
2019-05-11T17:08:59.318Z,10.63
2019-05-11T17:14:01.758Z,10.59
2019-05-11T17:19:04.001Z,10.64
2019-05-11T17:24:10.875Z,10.49
2019-05-11T17:29:12.991Z,10.48
2019-05-11T17:34:17.832Z,10.37
2019-05-11T17:39:22.471Z,10.33
2019-05-11T17:44:25.525Z,10.25
2019-05-11T17:49:27.779Z,10.06
2019-05-11T17:54:29.931Z,10.07
2019-05-11T17:59:32.036Z,10.07
2019-05-11T18:04:34.328Z,10.11
2019-05-11T18:09:38.064Z,10.01
2019-05-11T18:14:40.212Z,10.04
2019-05-11T18:19:42.529Z,9.96
2019-05-11T18:24:44.592Z,9.97
2019-05-11T18:29:48.567Z,10.04
2019-05-11T18:34:50.740Z,10.07
2019-05-11T18:39:52.938Z,9.98
2019-05-11T18:44:58.010Z,9.84
2019-05-11T18:49:59.480Z,10.02
2019-05-11T18:55:01.641Z,9.94
2019-05-11T19:00:08.299Z,10.03
2019-05-11T19:05:12.526Z,10.02
2019-05-11T19:10:14.794Z,9.94
2019-05-11T19:15:18.745Z,9.97
2019-05-11T19:20:21.025Z,9.98
2019-05-11T19:25:24.350Z,9.95
2019-05-11T19:30:27.735Z,9.95
2019-05-11T19:35:31.330Z,9.68
2019-05-11T19:40:33.424Z,9.73
2019-05-11T19:45:38.180Z,9.86
2019-05-11T19:50:41.189Z,9.86
2019-05-11T19:55:43.619Z,9.83
2019-05-11T20:00:45.680Z,9.80
2019-05-11T20:05:48.541Z,9.81
2019-05-11T20:10:50.773Z,9.76
2019-05-11T20:15:52.813Z,9.67
2019-05-11T20:20:54.841Z,9.72
2019-05-11T20:26:01.537Z,9.59
2019-05-11T20:31:03.677Z,9.33
2019-05-11T20:36:05.797Z,9.57
2019-05-11T20:41:08.445Z,9.62
2019-05-11T20:46:10.594Z,9.32
2019-05-11T20:51:12.688Z,9.42
2019-05-11T20:56:15.052Z,9.42
2019-05-11T21:01:21.619Z,9.28
2019-05-11T21:06:23.860Z,9.17
2019-05-11T21:11:25.973Z,9.13
2019-05-11T21:16:28.038Z,9.16
2019-05-11T21:21:30.514Z,9.09
2019-05-11T21:26:32.712Z,8.95
2019-05-11T21:31:37.712Z,9.04
2019-05-11T21:36:39.248Z,9.16
2019-05-11T21:41:41.685Z,9.08
2019-05-11T21:46:44.106Z,9.07
2019-05-11T21:51:48.147Z,9.07
2019-05-11T21:56:50.519Z,8.97
2019-05-11T22:01:52.656Z,8.96
2019-05-11T22:06:54.829Z,8.96
2019-05-11T22:11:56.985Z,8.95
2019-05-11T22:17:02.377Z,9.08
2019-05-11T22:22:17.326Z,9.01
2019-05-11T22:27:08.303Z,8.97
2019-05-11T22:32:10.401Z,9.02
2019-05-11T22:37:12.500Z,8.94
2019-05-11T22:42:14.979Z,8.96
2019-05-11T22:47:17.820Z,8.92
2019-05-11T22:52:32.975Z,8.86
2019-05-11T22:57:24.167Z,8.86
2019-05-11T23:02:28.553Z,8.77
2019-05-11T23:07:30.640Z,8.77
2019-05-11T23:12:32.692Z,8.53
2019-05-11T23:17:35.013Z,8.56
2019-05-11T23:22:56.056Z,8.54
2019-05-11T23:27:51.234Z,8.55
2019-05-11T23:32:53.369Z,8.51
2019-05-11T23:37:57.606Z,8.51
2019-05-11T23:42:59.477Z,8.50
2019-05-11T23:48:01.584Z,8.43
2019-05-11T23:53:06.484Z,8.38
2019-05-11T23:58:08.366Z,8.43
